Time;durP1;ratioP1;P1;durP2;ratioP2;P2;SDS_P1;SDS_P2;PMS_P1;PMS_P2;Temp;Humidity;BMP_temperature;BMP_pressure;BME280_temperature;BME280_humidity;BME280_pressure;Samples;Min_cycle;Max_cycle;Signal;HPM_P1;HPM_P2
2022/01/20 00:00:17;;;;;;;6.68;3.80;;;;;;;2.00;97.64;98741.09;4088489;28;20035;-72
2022/01/20 00:02:17;;;;;;;6.50;4.13;;;;;;;2.05;98.08;98757.31;4088086;28;20035;-72
2022/01/20 00:04:44;;;;;;;6.20;4.57;;;;;;;2.06;98.68;98775.28;4088670;28;20038;-72
2022/01/20 00:07:16;;;;;;;7.05;4.70;;;;;;;2.12;97.94;98774.03;4090701;28;20055;-72
2022/01/20 00:27:28;;;;;;;4.95;3.65;;;;;;;2.02;98.25;98783.31;4088551;28;20065;-71
2022/01/20 00:29:31;;;;;;;;;;;;;;;2.04;97.68;98782.97;4088251;28;20112;-71
2022/01/20 00:32:08;;;;;;;5.22;3.33;;;;;;;2.04;96.79;98782.97;4088277;28;19962;-72
2022/01/20 00:34:17;;;;;;;5.07;3.60;;;;;;;2.01;97.12;98800.00;4089837;28;20223;-72
2022/01/20 00:38:18;;;;;;;5.82;3.95;;;;;;;1.84;98.79;98804.25;4087423;28;20043;-72
2022/01/20 00:40:19;;;;;;;5.20;3.70;;;;;;;1.81;98.71;98799.41;4087966;28;20035;-72
2022/01/20 00:42:20;;;;;;;6.57;3.60;;;;;;;1.86;98.62;98796.53;4088595;28;20309;-72
2022/01/20 00:44:21;;;;;;;6.05;3.63;;;;;;;1.87;98.81;98792.69;4091261;28;20122;-72
2022/01/20 00:46:21;;;;;;;6.60;4.00;;;;;;;1.87;98.86;98803.59;4090643;28;20521;-71
2022/01/20 00:48:22;;;;;;;5.80;3.88;;;;;;;1.92;99.24;98813.59;4087618;28;20055;-72
2022/01/20 00:50:24;;;;;;;8.52;4.32;;;;;;;1.86;100.00;98823.84;4087026;28;20347;-72
2022/01/20 00:52:24;;;;;;;9.05;4.07;;;;;;;1.84;100.00;98817.88;4087864;28;20047;-72
2022/01/20 00:54:25;;;;;;;5.97;3.92;;;;;;;1.80;100.00;98816.09;4087595;28;20047;-72
2022/01/20 00:56:25;;;;;;;5.55;3.60;;;;;;;1.80;100.00;98811.44;4088021;28;20463;-72
2022/01/20 00:58:26;;;;;;;6.38;3.55;;;;;;;1.78;99.99;98827.31;4086737;28;20039;-71
2022/01/20 01:00:26;;;;;;;8.27;3.65;;;;;;;1.76;99.61;98820.56;4087034;28;20043;-72
2022/01/20 01:02:26;;;;;;;7.30;3.92;;;;;;;1.61;100.00;98832.66;4093200;28;20161;-72
2022/01/20 01:04:27;;;;;;;6.18;3.83;;;;;;;1.55;100.00;98829.25;4088231;28;20051;-71
2022/01/20 01:06:57;;;;;;;6.80;4.45;;;;;;;1.58;100.00;98819.66;4091591;28;20100;-71
2022/01/20 01:08:58;;;;;;;6.72;4.13;;;;;;;1.60;100.00;98828.31;4093321;28;20050;-71
2022/01/20 01:10:58;;;;;;;6.68;4.18;;;;;;;1.56;100.00;98824.59;4094827;28;20544;-71
2022/01/20 01:13:03;;;;;;;5.90;3.58;;;;;;;1.59;100.00;98822.06;4091300;28;20621;-71
2022/01/20 01:15:10;;;;;;;9.73;3.75;;;;;;;1.50;99.64;98820.41;4092031;28;20663;-71
2022/01/20 01:21:44;;;;;;;4.47;2.05;;;;;;;1.36;95.21;98853.97;4091011;28;20058;-71
2022/01/20 01:23:45;;;;;;;8.80;2.65;;;;;;;1.17;95.79;98845.16;4092955;28;20070;-71
2022/01/20 01:25:45;;;;;;;8.75;2.20;;;;;;;1.12;96.08;98843.34;4090659;28;20043;-71
2022/01/20 01:27:46;;;;;;;5.75;2.05;;;;;;;1.12;94.99;98848.78;4089810;28;20055;-71
2022/01/20 01:30:17;;;;;;;6.57;1.63;;;;;;;1.04;95.64;98851.44;4092207;28;20233;-71
2022/01/20 01:32:10;;;;;;;6.60;2.22;;;;;;;0.92;96.65;98853.88;4103824;28;20055;-72
2022/01/20 01:34:11;;;;;;;8.95;3.15;;;;;;;0.91;97.47;98855.81;4095889;28;20085;-71
2022/01/20 01:36:12;;;;;;;5.97;1.98;;;;;;;0.89;97.73;98843.59;4091873;28;20515;-71
2022/01/20 01:40:13;;;;;;;8.07;2.63;;;;;;;0.69;98.90;98856.53;4089513;28;20042;-72
2022/01/20 01:42:13;;;;;;;4.38;2.22;;;;;;;0.65;99.14;98849.25;4093020;28;20042;-72
2022/01/20 01:44:21;;;;;;;7.22;2.67;;;;;;;0.57;99.71;98850.78;4089393;28;20150;-72
2022/01/20 01:46:22;;;;;;;6.85;2.55;;;;;;;0.56;99.15;98862.78;4090236;28;20127;-72
2022/01/20 01:48:22;;;;;;;6.25;2.60;;;;;;;0.49;98.81;98857.72;4092746;28;20145;-72
2022/01/20 01:50:23;;;;;;;5.80;2.40;;;;;;;0.48;99.07;98868.94;4091513;28;20126;-72
2022/01/20 01:52:23;;;;;;;7.60;2.17;;;;;;;0.52;98.50;98853.63;4089078;28;20059;-72
2022/01/20 01:54:24;;;;;;;5.13;2.75;;;;;;;0.51;98.30;98866.44;4094435;28;20238;-72
2022/01/20 01:56:24;;;;;;;6.68;2.17;;;;;;;0.47;98.02;98851.78;4089950;28;20039;-72
2022/01/20 01:58:25;;;;;;;4.40;2.40;;;;;;;0.48;98.18;98853.41;4089696;28;20036;-72
2022/01/20 02:00:26;;;;;;;4.43;2.28;;;;;;;0.43;98.25;98858.97;4090302;28;20039;-72
2022/01/20 02:02:27;;;;;;;7.70;1.88;;;;;;;0.45;98.07;98851.28;4089069;28;20446;-72
2022/01/20 02:04:27;;;;;;;4.95;2.17;;;;;;;0.40;98.54;98856.81;4090418;28;20055;-72
2022/01/20 02:06:51;;;;;;;7.72;2.60;;;;;;;0.32;99.28;98860.25;4089167;28;20054;-72
2022/01/20 02:18:44;;;;;;;7.03;1.90;;;;;;;0.18;98.91;98845.84;4113915;28;19968;-72
2022/01/20 02:20:45;;;;;;;5.78;1.83;;;;;;;0.13;99.35;98835.03;4089101;28;20331;-72
2022/01/20 02:22:45;;;;;;;9.02;2.20;;;;;;;0.10;99.21;98841.91;4089526;28;20867;-72
2022/01/20 02:24:46;;;;;;;5.05;2.00;;;;;;;0.13;98.92;98835.03;4090078;28;20048;-72
2022/01/20 02:26:46;;;;;;;6.70;2.22;;;;;;;0.11;98.49;98837.25;4088591;28;20159;-72
2022/01/20 02:28:47;;;;;;;10.65;2.38;;;;;;;0.11;98.21;98837.25;4089637;28;20047;-72
2022/01/20 02:30:47;;;;;;;4.65;2.25;;;;;;;0.06;98.76;98837.34;4171936;28;20045;-72
2022/01/20 02:32:53;;;;;;;3.70;1.88;;;;;;;0.04;98.81;98842.28;4091494;28;20051;-72
2022/01/20 02:34:54;;;;;;;5.40;2.35;;;;;;;0.02;99.26;98839.88;4091300;28;20513;-72
2022/01/20 02:36:56;;;;;;;7.72;3.22;;;;;;;-0.01;99.86;98841.25;4088692;28;20059;-72
2022/01/20 02:39:07;;;;;;;7.20;2.53;;;;;;;0.02;100.00;98839.88;4089749;28;20051;-72
2022/01/20 02:45:45;;;;;;;10.50;2.03;;;;;;;0.01;100.00;98827.38;4091946;28;20059;-72
2022/01/20 02:47:50;;;;;;;12.55;2.92;;;;;;;-0.02;100.00;98826.03;4170392;28;20389;-72
2022/01/20 02:49:51;;;;;;;9.02;2.53;;;;;;;-0.05;100.00;98825.84;4092237;28;20040;-72
2022/01/20 02:51:54;;;;;;;5.55;2.63;;;;;;;-0.06;100.00;98838.66;4088777;28;20047;-72
2022/01/20 02:53:55;;;;;;;11.18;2.58;;;;;;;0.03;100.00;98832.50;4091763;28;20408;-72
2022/01/20 02:55:55;;;;;;;9.80;2.80;;;;;;;0.12;100.00;98830.72;4089552;28;20108;-72
2022/01/20 02:57:56;;;;;;;6.78;2.83;;;;;;;0.23;99.42;98840.28;4093136;28;20055;-72
2022/01/20 02:59:56;;;;;;;9.90;2.90;;;;;;;0.29;99.27;98830.91;4090523;28;20126;-72
2022/01/20 03:01:56;;;;;;;10.60;3.22;;;;;;;0.31;99.42;98831.41;4094560;28;20291;-72
2022/01/20 03:03:58;;;;;;;9.77;3.28;;;;;;;0.40;98.88;98818.72;4095967;28;20050;-72
2022/01/20 03:05:58;;;;;;;11.10;3.17;;;;;;;0.40;98.74;98812.47;4091566;28;20039;-72
2022/01/20 03:08:00;;;;;;;11.88;3.20;;;;;;;0.41;99.02;98817.59;4088288;28;20047;-72
2022/01/20 03:10:00;;;;;;;11.68;2.90;;;;;;;0.44;99.38;98811.56;4091472;28;20560;-72
2022/01/20 03:12:02;;;;;;;12.00;3.22;;;;;;;0.45;99.43;98815.91;4091801;28;20043;-72
2022/01/20 03:14:02;;;;;;;14.07;3.50;;;;;;;0.46;98.98;98806.63;4088508;28;20125;-71
2022/01/20 03:16:02;;;;;;;12.75;3.22;;;;;;;0.44;99.15;98800.69;4088970;28;20039;-71
2022/01/20 03:18:04;;;;;;;8.48;3.20;;;;;;;0.54;98.76;98810.53;4188431;28;20121;-72
2022/01/20 03:20:05;;;;;;;10.77;3.47;;;;;;;0.47;98.42;98808.22;4089356;28;20316;-72
2022/01/20 03:22:05;;;;;;;7.35;2.97;;;;;;;0.52;98.36;98805.41;4089241;28;20467;-72
2022/01/20 03:24:07;;;;;;;12.52;2.92;;;;;;;0.51;98.27;98805.72;4089248;28;20031;-72
2022/01/20 03:26:07;;;;;;;13.73;4.53;;;;;;;0.48;98.72;98806.31;4087826;28;20093;-72
2022/01/20 03:28:08;;;;;;;8.80;3.58;;;;;;;0.52;98.43;98802.69;4087407;28;20321;-72
2022/01/20 03:30:09;;;;;;;13.75;3.42;;;;;;;0.54;97.96;98797.75;4088866;28;20038;-72
2022/01/20 03:32:09;;;;;;;11.57;2.80;;;;;;;0.57;97.74;98804.47;4088126;28;20525;-71
2022/01/20 03:34:10;;;;;;;12.77;2.83;;;;;;;0.51;97.92;98784.75;4088729;28;20464;-71
2022/01/20 03:36:10;;;;;;;11.68;4.45;;;;;;;0.45;97.60;98775.06;4092565;28;20059;-71
2022/01/20 03:38:10;;;;;;;13.10;4.15;;;;;;;0.42;97.99;98762.06;4090315;28;20670;-71
2022/01/20 03:40:11;;;;;;;8.45;3.80;;;;;;;0.38;97.83;98761.06;4087740;28;20045;-71
2022/01/20 03:42:12;;;;;;;16.90;3.28;;;;;;;0.37;98.05;98764.88;4088336;28;20445;-72
2022/01/20 03:44:12;;;;;;;14.80;3.70;;;;;;;0.44;97.07;98761.75;4092253;28;20036;-72
2022/01/20 03:46:13;;;;;;;8.63;3.50;;;;;;;0.42;96.75;98750.38;4090127;28;20062;-72
2022/01/20 03:48:13;;;;;;;7.85;2.88;;;;;;;0.50;95.25;98747.75;4089173;28;20042;-72
2022/01/20 03:52:33;;;;;;;14.50;3.30;;;;;;;0.63;93.27;98735.19;4093271;28;20131;-72
2022/01/20 03:54:34;;;;;;;19.52;3.47;;;;;;;0.63;93.29;98716.13;4087573;28;20079;-72
2022/01/20 03:56:34;;;;;;;15.18;3.20;;;;;;;0.68;91.90;98720.69;4087443;28;20052;-71
2022/01/20 03:58:34;;;;;;;9.75;3.08;;;;;;;0.66;91.44;98742.75;4088735;28;20043;-71
2022/01/20 04:00:35;;;;;;;8.80;2.97;;;;;;;0.69;91.05;98733.19;4088136;28;20476;-71
2022/01/20 04:02:35;;;;;;;15.30;3.03;;;;;;;0.83;89.58;98740.19;4087006;28;20043;-71
2022/01/20 04:04:36;;;;;;;5.35;2.33;;;;;;;0.87;88.71;98718.59;4091631;28;20062;-71
2022/01/20 04:06:37;;;;;;;9.77;2.67;;;;;;;0.76;89.63;98731.63;4090756;28;20042;-71
2022/01/20 04:08:41;;;;;;;14.00;2.78;;;;;;;0.72;89.53;98732.56;4089771;28;20526;-71
2022/01/20 04:10:41;;;;;;;12.52;2.33;;;;;;;0.62;89.75;98722.69;4093505;28;20100;-71
2022/01/20 04:12:42;;;;;;;23.58;3.50;;;;;;;0.54;90.55;98717.97;4089078;28;20562;-71
2022/01/20 04:14:47;;;;;;;13.40;2.33;;;;;;;0.57;89.87;98714.63;4087986;28;20090;-71
2022/01/20 04:17:03;;;;;;;10.88;3.03;;;;;;;0.65;90.13;98716.63;4086531;28;20139;-71
2022/01/20 04:19:10;;;;;;;9.73;2.88;;;;;;;0.69;89.76;98714.13;4088952;28;20039;-71
2022/01/20 04:21:10;;;;;;;10.57;2.13;;;;;;;0.72;90.05;98716.22;4090492;28;20051;-72
2022/01/20 04:23:10;;;;;;;11.40;2.60;;;;;;;0.75;90.13;98713.69;4087721;28;20055;-72
2022/01/20 04:25:11;;;;;;;11.85;2.97;;;;;;;0.80;90.40;98710.84;4088142;28;20520;-72
2022/01/20 04:27:11;;;;;;;12.98;2.78;;;;;;;0.82;89.88;98705.88;4088308;28;20048;-72
2022/01/20 04:29:13;;;;;;;5.20;2.22;;;;;;;0.77;90.84;98705.22;4092570;28;20277;-72
2022/01/20 04:31:13;;;;;;;8.65;2.53;;;;;;;0.72;91.26;98702.59;4088138;28;20499;-72
2022/01/20 04:33:14;;;;;;;8.48;2.63;;;;;;;0.68;91.19;98696.16;4087759;28;20342;-72
2022/01/20 04:35:18;;;;;;;11.10;2.75;;;;;;;0.63;91.60;98678.00;4088373;28;20721;-71
2022/01/20 04:37:19;;;;;;;7.18;2.95;;;;;;;0.59;91.83;98668.88;4087412;28;20043;-72
2022/01/20 04:39:23;;;;;;;6.32;2.47;;;;;;;0.58;91.87;98661.81;4087606;28;20056;-72
2022/01/20 04:41:24;;;;;;;5.75;2.58;;;;;;;0.59;92.64;98673.50;4088401;28;20410;-72
2022/01/20 04:43:26;;;;;;;11.90;3.25;;;;;;;0.62;92.44;98673.69;4090693;28;20043;-72
2022/01/20 04:45:32;;;;;;;7.60;2.53;;;;;;;0.78;91.12;98679.56;4090121;28;20048;-72
2022/01/20 04:47:43;;;;;;;7.65;2.58;;;;;;;0.78;90.93;98672.22;4091009;28;20054;-72
2022/01/20 04:58:47;;;;;;;5.75;2.42;;;;;;;0.98;89.87;98679.06;4093284;28;20062;-72
2022/01/20 05:00:47;;;;;;;8.43;2.33;;;;;;;1.05;89.44;98679.44;4095565;28;20039;-72
2022/01/20 05:02:47;;;;;;;8.43;2.50;;;;;;;1.06;90.07;98688.41;4098275;28;20053;-72
2022/01/20 05:04:48;;;;;;;6.88;2.20;;;;;;;1.16;89.16;98676.47;4097854;28;20542;-72
2022/01/20 05:06:49;;;;;;;7.88;2.42;;;;;;;1.13;89.63;98681.44;4092741;28;20048;-72
2022/01/20 05:08:52;;;;;;;4.70;2.13;;;;;;;1.17;90.07;98675.38;4090573;28;20074;-72
2022/01/20 05:10:52;;;;;;;5.78;2.30;;;;;;;1.15;89.99;98681.09;4089605;28;20054;-72
2022/01/20 05:14:54;;;;;;;7.75;2.53;;;;;;;1.17;90.14;98686.28;4094213;28;20066;-72
2022/01/20 05:16:56;;;;;;;7.95;2.63;;;;;;;1.19;90.04;98681.31;4091661;28;20048;-71
2022/01/20 05:18:57;;;;;;;10.85;2.63;;;;;;;1.22;90.40;98691.56;4094015;28;20044;-71
2022/01/20 05:20:57;;;;;;;9.48;2.67;;;;;;;1.16;90.69;98695.53;4091935;28;20097;-71
2022/01/20 05:22:58;;;;;;;10.70;3.60;;;;;;;1.10;90.80;98701.13;4091879;28;20043;-71
2022/01/20 05:24:58;;;;;;;9.27;2.78;;;;;;;1.13;90.32;98700.50;4094054;28;20047;-71
2022/01/20 05:26:59;;;;;;;7.07;3.20;;;;;;;1.10;91.14;98687.50;4090521;28;20104;-71
2022/01/20 05:28:59;;;;;;;5.22;2.70;;;;;;;1.20;90.80;98693.81;4092853;28;20050;-71
2022/01/20 05:30:59;;;;;;;12.52;2.90;;;;;;;1.25;91.56;98689.06;4093405;28;20074;-71
2022/01/20 05:33:00;;;;;;;6.00;2.33;;;;;;;1.23;92.12;98702.16;4090229;28;20089;-71
2022/01/20 05:35:00;;;;;;;12.60;2.97;;;;;;;1.26;92.25;98693.38;4091779;28;20542;-71
2022/01/20 05:37:01;;;;;;;4.47;2.40;;;;;;;1.19;92.81;98703.91;4091407;28;20070;-71
2022/01/20 05:39:02;;;;;;;7.55;3.33;;;;;;;1.21;93.48;98711.78;4092733;28;20834;-71
2022/01/20 05:41:03;;;;;;;6.47;2.78;;;;;;;1.21;93.54;98704.41;4091705;28;20139;-71
2022/01/20 05:43:03;;;;;;;8.60;2.80;;;;;;;1.13;95.22;98705.16;4093080;28;20129;-71
2022/01/20 05:45:06;;;;;;;9.38;3.53;;;;;;;1.05;96.61;98714.88;4090402;28;20457;-71
2022/01/20 05:47:11;;;;;;;9.48;3.45;;;;;;;0.99;97.69;98735.19;4091018;28;20051;-71
2022/01/20 05:49:11;;;;;;;6.05;2.50;;;;;;;0.96;97.96;98718.66;4093376;28;20039;-71
2022/01/20 05:51:12;;;;;;;8.63;2.95;;;;;;;0.98;98.42;98722.66;4090354;28;20043;-71
2022/01/20 05:53:12;;;;;;;6.95;2.55;;;;;;;1.04;97.26;98720.63;4090963;28;20122;-71
2022/01/20 05:55:19;;;;;;;8.13;2.95;;;;;;;1.05;96.98;98723.03;4094160;28;20046;-72
2022/01/20 05:57:19;;;;;;;11.40;3.28;;;;;;;1.06;96.99;98718.41;4085309;28;20122;-71
2022/01/20 05:59:20;;;;;;;14.60;5.60;;;;;;;1.12;96.75;98717.97;4092357;28;20201;-71
2022/01/20 06:01:20;;;;;;;15.90;5.07;;;;;;;1.17;96.66;98722.50;4090794;28;20096;-71
2022/01/20 06:03:36;;;;;;;7.53;2.75;;;;;;;1.07;97.71;98720.00;4091383;28;20053;-71
2022/01/20 06:05:37;;;;;;;9.68;2.58;;;;;;;0.98;98.75;98719.13;4092004;28;20554;-71
2022/01/20 06:07:38;;;;;;;5.50;2.50;;;;;;;1.02;98.54;98714.69;4090337;28;20567;-71
2022/01/20 06:09:38;;;;;;;9.10;2.10;;;;;;;1.05;97.62;98714.88;4090931;28;20047;-71
2022/01/20 06:11:38;;;;;;;4.45;2.33;;;;;;;1.04;97.36;98720.63;4092391;28;20414;-72
2022/01/20 06:13:39;;;;;;;7.97;3.95;;;;;;;1.02;97.33;98720.94;4091335;28;20051;-72
2022/01/20 06:15:40;;;;;;;9.88;4.38;;;;;;;1.06;97.92;98719.19;4090984;28;20079;-72
2022/01/20 06:17:41;;;;;;;7.20;3.38;;;;;;;1.05;97.89;98719.53;4091203;28;20112;-71
2022/01/20 06:19:42;;;;;;;9.32;3.33;;;;;;;1.05;97.04;98714.88;4091179;28;20074;-71
2022/01/20 06:21:45;;;;;;;9.18;4.10;;;;;;;1.01;98.03;98719.34;4091881;28;20220;-71
2022/01/20 06:23:45;;;;;;;5.75;2.30;;;;;;;1.05;97.11;98714.06;4090339;28;20050;-71
2022/01/20 06:25:47;;;;;;;6.53;2.10;;;;;;;1.05;96.82;98720.31;4091618;28;20047;-71
2022/01/20 06:27:47;;;;;;;4.53;1.92;;;;;;;1.04;96.44;98707.81;4091596;28;20073;-71
2022/01/20 06:29:48;;;;;;;5.53;1.90;;;;;;;1.12;95.91;98715.25;4091827;28;20047;-71
2022/01/20 06:31:48;;;;;;;4.85;1.80;;;;;;;1.16;95.98;98720.06;4091157;28;20047;-71
2022/01/20 06:33:49;;;;;;;5.45;1.98;;;;;;;1.06;97.34;98702.06;4088649;28;20178;-71
2022/01/20 06:35:49;;;;;;;5.35;1.77;;;;;;;1.05;97.42;98708.63;4089193;28;20492;-71
2022/01/20 06:37:49;;;;;;;5.07;2.17;;;;;;;0.98;98.54;98711.78;4094001;28;20134;-71
2022/01/20 06:39:50;;;;;;;3.25;1.70;;;;;;;0.84;98.73;98700.94;4089146;28;20051;-71
2022/01/20 06:41:51;;;;;;;2.95;1.60;;;;;;;0.87;98.87;98702.25;4097285;28;20043;-71
2022/01/20 06:43:51;;;;;;;3.40;1.70;;;;;;;0.88;97.91;98716.66;4092402;28;20154;-71
2022/01/20 06:45:51;;;;;;;4.18;1.85;;;;;;;0.92;98.17;98726.66;4092820;28;20089;-71
2022/01/20 06:47:52;;;;;;;4.05;1.92;;;;;;;0.98;97.36;98721.88;4088195;28;20086;-71
2022/01/20 06:49:52;;;;;;;2.72;1.88;;;;;;;1.00;96.92;98723.19;4095203;28;20477;-71
2022/01/20 06:51:52;;;;;;;5.72;1.90;;;;;;;1.01;96.98;98718.53;4098031;28;20465;-71
2022/01/20 06:53:52;;;;;;;2.92;1.60;;;;;;;1.01;97.33;98724.00;4101763;28;20047;-71
2022/01/20 06:55:53;;;;;;;3.58;1.90;;;;;;;0.95;97.57;98736.91;4109770;28;20080;-72
2022/01/20 06:57:53;;;;;;;3.83;2.17;;;;;;;0.98;97.31;98752.63;4096202;28;20066;-72
2022/01/20 06:59:53;;;;;;;5.30;2.08;;;;;;;0.96;97.88;98756.78;4092687;28;20085;-72
2022/01/20 07:01:54;;;;;;;3.15;1.88;;;;;;;0.98;97.98;98771.72;4087743;28;20055;-72
2022/01/20 07:03:55;;;;;;;3.17;1.67;;;;;;;1.02;97.67;98796.44;4089230;28;20039;-71
2022/01/20 07:05:55;;;;;;;4.03;2.00;;;;;;;0.92;98.96;98879.22;4086725;28;20490;-71
2022/01/20 07:07:55;;;;;;;5.50;1.75;;;;;;;0.69;100.00;98880.25;4087572;28;20260;-71
2022/01/20 07:09:56;;;;;;;2.90;1.10;;;;;;;0.02;100.00;98875.25;4094536;28;20148;-71
2022/01/20 07:11:57;;;;;;;1.27;1.00;;;;;;;-0.40;100.00;98877.03;4087186;28;20113;-71
2022/01/20 07:13:57;;;;;;;1.42;1.15;;;;;;;-0.67;100.00;98874.16;4088601;28;20467;-71
2022/01/20 07:15:58;;;;;;;2.45;1.33;;;;;;;-0.80;100.00;98872.22;4094913;28;20043;-71
2022/01/20 07:17:58;;;;;;;10.20;1.65;;;;;;;-0.90;100.00;98871.25;4092110;28;20104;-71
2022/01/20 07:19:58;;;;;;;6.18;1.55;;;;;;;-0.87;100.00;98894.31;4088223;28;20090;-71
2022/01/20 07:22:00;;;;;;;10.05;2.30;;;;;;;-0.83;100.00;98887.16;4090162;28;20097;-71
2022/01/20 07:24:00;;;;;;;5.65;2.53;;;;;;;-0.83;100.00;98887.16;4089099;28;20073;-71
2022/01/20 07:26:01;;;;;;;7.65;2.58;;;;;;;-0.78;100.00;98891.72;4088293;28;20142;-72
2022/01/20 07:28:01;;;;;;;9.43;2.90;;;;;;;-0.74;100.00;98882.72;4088903;28;20062;-71
2022/01/20 07:30:03;;;;;;;6.57;2.50;;;;;;;-0.70;100.00;98878.28;4088623;28;20046;-71
2022/01/20 07:32:06;;;;;;;5.45;2.80;;;;;;;-0.69;100.00;98896.22;4089860;28;20031;-71
2022/01/20 07:34:06;;;;;;;7.88;2.67;;;;;;;-0.65;100.00;98886.38;4089688;28;20431;-71
2022/01/20 07:36:06;;;;;;;9.13;2.80;;;;;;;-0.65;100.00;98896.44;4089499;28;20092;-71
2022/01/20 07:38:07;;;;;;;7.93;3.03;;;;;;;-0.58;100.00;98911.28;4088009;28;20394;-71
2022/01/20 07:40:08;;;;;;;10.90;5.57;;;;;;;-0.53;100.00;98915.81;4090843;28;20403;-71
2022/01/20 07:42:09;;;;;;;20.65;10.63;;;;;;;-0.47;100.00;98911.13;4091991;28;20395;-71
2022/01/20 07:44:09;;;;;;;15.38;6.55;;;;;;;-0.45;100.00;98931.47;4087729;28;20065;-71
2022/01/20 07:46:09;;;;;;;16.98;5.50;;;;;;;-0.41;100.00;98923.53;4092518;28;20030;-71
2022/01/20 07:48:10;;;;;;;9.55;3.40;;;;;;;-0.38;100.00;98928.38;4086987;28;20031;-71
2022/01/20 07:50:10;;;;;;;7.25;3.85;;;;;;;-0.38;100.00;98920.22;4087746;28;20042;-71
2022/01/20 07:52:12;;;;;;;4.97;2.50;;;;;;;-0.33;98.46;98922.88;4089731;28;20031;-71
2022/01/20 07:54:13;;;;;;;8.30;2.30;;;;;;;-0.33;98.58;98923.69;4087858;28;20041;-71
2022/01/20 07:56:13;;;;;;;4.13;1.95;;;;;;;-0.31;96.60;98928.81;4089033;28;20338;-71
2022/01/20 07:58:14;;;;;;;6.50;2.65;;;;;;;-0.29;94.52;98926.59;4087201;28;20035;-71
2022/01/20 08:00:15;;;;;;;8.20;2.13;;;;;;;-0.27;94.32;98935.28;4088584;28;20090;-71
2022/01/20 08:02:16;;;;;;;5.50;1.73;;;;;;;-0.25;94.10;98938.50;4087732;28;20031;-71
2022/01/20 08:04:17;;;;;;;4.40;1.90;;;;;;;-0.23;94.40;98946.38;4087877;28;20298;-71
2022/01/20 08:06:17;;;;;;;5.60;1.88;;;;;;;-0.17;94.26;98947.91;4088023;28;20488;-71
2022/01/20 08:08:18;;;;;;;4.07;2.17;;;;;;;-0.22;95.86;98939.84;4086766;28;20439;-71
2022/01/20 08:10:18;;;;;;;7.80;2.25;;;;;;;-0.23;95.82;98955.34;4089999;28;20035;-71
2022/01/20 08:12:18;;;;;;;6.78;1.55;;;;;;;-0.14;94.83;98988.13;4087763;28;20036;-71
2022/01/20 08:14:19;;;;;;;9.48;2.28;;;;;;;-0.09;90.37;98971.69;4088033;28;20031;-71
2022/01/20 08:16:19;;;;;;;4.60;1.90;;;;;;;-0.03;89.42;98982.22;4091100;28;20431;-71
2022/01/20 08:18:19;;;;;;;7.43;1.52;;;;;;;-0.03;86.23;98986.84;4089316;28;20031;-71
2022/01/20 08:20:20;;;;;;;7.53;1.67;;;;;;;-0.01;82.77;98993.59;4087885;28;26819;-71
2022/01/20 08:22:20;;;;;;;9.45;2.10;;;;;;;-0.03;84.94;98984.13;4089082;28;20051;-71
2022/01/20 08:24:21;;;;;;;6.93;1.83;;;;;;;-0.05;84.90;98973.53;4088440;28;20499;-71
2022/01/20 08:26:21;;;;;;;6.32;1.75;;;;;;;-0.05;84.28;98991.78;4087639;28;20047;-71
2022/01/20 08:28:22;;;;;;;8.02;2.42;;;;;;;-0.08;85.33;98993.19;4087784;28;20198;-71
2022/01/20 08:30:24;;;;;;;9.63;2.92;;;;;;;-0.13;84.60;98995.97;4088404;28;20406;-71
2022/01/20 08:32:25;;;;;;;6.40;2.33;;;;;;;-0.15;85.13;98998.19;4087520;28;20681;-71
2022/01/20 08:34:25;;;;;;;6.80;1.85;;;;;;;-0.12;85.20;98991.34;4087981;28;20051;-71
2022/01/20 08:36:26;;;;;;;9.00;1.88;;;;;;;-0.08;84.03;98986.94;4087924;28;20051;-71
2022/01/20 08:38:26;;;;;;;6.25;2.47;;;;;;;-0.06;83.50;98984.72;4087496;28;20470;-71
2022/01/20 08:40:27;;;;;;;8.05;1.88;;;;;;;-0.01;82.93;98987.34;4087045;28;20040;-71
2022/01/20 08:42:27;;;;;;;10.68;2.75;;;;;;;0.01;81.29;98979.72;4088233;28;20071;-71
2022/01/20 08:44:27;;;;;;;7.93;2.00;;;;;;;0.07;81.61;98986.69;4088127;28;20082;-71
2022/01/20 08:46:28;;;;;;;5.32;2.08;;;;;;;0.08;80.16;98996.44;4087129;28;20061;-71
2022/01/20 08:48:28;;;;;;;4.43;1.90;;;;;;;0.12;80.58;99004.84;4086567;28;20567;-71
2022/01/20 08:50:30;;;;;;;7.60;1.85;;;;;;;0.10;79.78;99009.78;4087854;28;20718;-71
2022/01/20 08:52:31;;;;;;;4.40;2.10;;;;;;;0.08;80.70;99020.13;4087350;28;20043;-71
2022/01/20 08:54:33;;;;;;;9.75;3.05;;;;;;;0.15;79.90;99045.06;4087210;28;20078;-71
2022/01/20 08:56:36;;;;;;;11.93;3.15;;;;;;;0.14;78.92;99046.97;4087379;28;20039;-71
2022/01/20 08:58:37;;;;;;;6.97;2.50;;;;;;;0.17;78.79;99040.16;4087726;28;20441;-71
2022/01/20 09:00:37;;;;;;;10.18;3.80;;;;;;;0.13;79.60;99072.56;4086665;28;20162;-71
2022/01/20 09:02:37;;;;;;;11.40;2.03;;;;;;;0.06;79.51;99066.69;4092288;28;20093;-71
2022/01/20 09:04:38;;;;;;;8.65;2.40;;;;;;;0.17;78.38;99070.09;4087412;28;20059;-71
2022/01/20 09:06:39;;;;;;;14.38;3.38;;;;;;;0.10;80.44;99059.56;4086463;28;20043;-71
2022/01/20 09:08:39;;;;;;;15.27;3.85;;;;;;;-0.02;81.08;99064.63;4086951;28;20074;-71
2022/01/20 09:10:42;;;;;;;12.40;3.33;;;;;;;0.01;80.53;99053.19;4093827;28;20423;-71
2022/01/20 09:17:04;;;;;;;5.63;2.15;;;;;;;0.03;80.19;99066.47;4085986;28;20318;-71
2022/01/20 09:19:05;;;;;;;2.95;1.67;;;;;;;0.00;76.92;99051.56;4087731;28;20466;-71
2022/01/20 09:21:05;;;;;;;5.57;2.35;;;;;;;0.06;77.33;99046.84;4168888;28;20289;-71
2022/01/20 09:23:07;;;;;;;12.15;3.00;;;;;;;0.03;75.17;99055.59;4087775;28;20052;-71
2022/01/20 09:25:08;;;;;;;10.32;2.05;;;;;;;-0.03;74.54;99071.19;4087423;28;20086;-71
2022/01/20 09:27:08;;;;;;;3.72;1.45;;;;;;;0.00;74.93;99057.00;4086808;28;20130;-70
2022/01/20 09:29:09;;;;;;;5.63;1.60;;;;;;;-0.07;76.07;99060.09;4089979;28;20042;-71
2022/01/20 09:31:10;;;;;;;3.13;1.50;;;;;;;-0.01;75.64;99050.72;4089175;28;20585;-71
2022/01/20 09:35:10;;;;;;;10.65;3.20;;;;;;;-0.05;75.03;99043.47;4089971;28;20059;-71
2022/01/20 09:37:12;;;;;;;11.35;2.28;;;;;;;0.07;73.15;99081.09;4089741;28;20507;-71
2022/01/20 09:39:13;;;;;;;7.60;2.35;;;;;;;0.04;73.03;99071.63;4088751;28;20047;-70
2022/01/20 09:41:13;;;;;;;9.68;2.88;;;;;;;0.07;73.30;99062.88;4091382;28;20069;-71
2022/01/20 09:43:14;;;;;;;5.15;1.80;;;;;;;0.05;74.41;99058.81;4090085;28;21013;-71
2022/01/20 09:45:16;;;;;;;8.93;2.38;;;;;;;0.03;75.54;99072.72;4094195;28;20054;-71
2022/01/20 09:47:17;;;;;;;7.57;2.38;;;;;;;-0.01;77.44;99072.50;4089085;28;20134;-71
2022/01/20 09:49:18;;;;;;;8.75;2.28;;;;;;;-0.01;77.11;99080.66;4089318;28;20592;-71
2022/01/20 09:51:18;;;;;;;7.93;2.15;;;;;;;0.05;77.38;99067.00;4091333;28;20525;-71
2022/01/20 09:53:19;;;;;;;8.73;2.10;;;;;;;0.07;77.40;99087.34;4089626;28;20043;-71
2022/01/20 09:55:20;;;;;;;9.63;1.95;;;;;;;0.13;77.45;99069.03;4089894;28;20061;-71
2022/01/20 09:57:20;;;;;;;7.68;2.90;;;;;;;0.14;77.00;99063.31;4089099;28;20075;-71
2022/01/20 09:59:20;;;;;;;5.43;2.00;;;;;;;0.18;75.67;99066.25;4094759;28;20051;-71
2022/01/20 10:01:49;;;;;;;9.60;1.63;;;;;;;0.12;75.11;99067.44;4090365;28;20055;-71
2022/01/20 10:03:49;;;;;;;10.38;3.03;;;;;;;0.19;75.90;99071.41;4090018;28;20047;-71
2022/01/20 10:05:52;;;;;;;4.53;1.98;;;;;;;0.31;74.51;99062.78;4090827;28;20055;-71
2022/01/20 10:07:53;;;;;;;6.03;2.72;;;;;;;0.36;73.94;99064.63;4090520;28;20055;-71
2022/01/20 10:09:53;;;;;;;9.50;2.15;;;;;;;0.28;74.85;99077.78;4089650;28;20142;-71
2022/01/20 10:11:53;;;;;;;5.32;2.10;;;;;;;0.33;74.44;99074.16;4089938;28;20055;-71
2022/01/20 10:13:57;;;;;;;10.88;2.90;;;;;;;0.26;73.43;99073.75;4089357;28;20380;-71
2022/01/20 10:16:02;;;;;;;10.38;2.63;;;;;;;0.29;74.81;99070.44;4089415;28;20057;-71
2022/01/20 10:18:11;;;;;;;5.07;2.50;;;;;;;0.33;73.49;99068.72;4087937;28;20057;-71
2022/01/20 10:20:11;;;;;;;9.10;2.30;;;;;;;0.33;74.05;99070.63;4091337;28;20544;-71
2022/01/20 10:22:18;;;;;;;11.00;2.75;;;;;;;0.43;73.66;99071.31;4088973;28;20027;-71
2022/01/20 10:24:18;;;;;;;7.53;2.10;;;;;;;0.43;74.21;99073.22;4088756;28;20138;-71
2022/01/20 10:26:22;;;;;;;5.47;1.77;;;;;;;0.40;76.29;99085.50;4089724;28;20395;-71
2022/01/20 10:28:22;;;;;;;10.43;2.88;;;;;;;0.35;79.16;99087.50;4088334;28;20372;-71
2022/01/20 10:30:26;;;;;;;9.00;2.70;;;;;;;0.09;81.56;99076.19;4089612;28;20046;-71
2022/01/20 10:32:37;;;;;;;8.27;3.10;;;;;;;0.11;83.31;99084.88;4091628;28;20047;-71
2022/01/20 10:34:37;;;;;;;12.75;3.22;;;;;;;0.10;83.36;99073.19;4089646;28;20226;-71
2022/01/20 10:36:50;;;;;;;12.38;3.05;;;;;;;0.08;84.35;99047.34;4088136;28;20090;-71